Aérodrome :
LOGIN :

S'inscrire | Disclaimer

   EN    FR    IT 

 










Légende :    VFR   VFR Marginal   IFR   IFR Intensif   IFR Très Intensif
Visi : 
Plafond : 
>= 8 km
>= 3000ft
5 à 8 km
1000 à 3000 ft
1500m à 5 km
500 à 1000 ft
800 à 1500m
200 à 500 ft
< 800m
< 200 ft
Symboles :   Orages  Brouillard  Fortes neiges  Fortes précipitations  Vent > 20 kt
SIGMETs :   Divers  Orages  Givrage  Turbulence  Onde Orograph.  Cendres Volcan.






- Altitude de l'aérodrome : 209 ft
- Code IATA : CLY


LFKC - Calvi

DERNIER METAR :
  • 132330Z AUTO 19005KT CAVOK 17/10 Q1020

METARs EXPIRÉS :
  • 132300Z AUTO 20003KT CAVOK 16/11 Q1020
  • 132230Z AUTO 18004KT CAVOK 15/10 Q1020
  • 132200Z AUTO 17005KT CAVOK 16/10 Q1020
  • 132130Z AUTO 20006KT CAVOK 18/11 Q1020
  • 132100Z AUTO 20006KT CAVOK 17/12 Q1020

TAF TAF LFKC
Valide du 13 à 15h jusqu'au 14 à 15h UTC


131400Z 1315/1415 36005KT CAVOK TX22/1412Z TN13/1404Z
ATIS : +33 4 95 65 82 49



MET'MAP, la Météo Aéronautique d'un coup d'oeil ! - Copyright ORBIFLY Décembre 2007 - Disclaimer

ORBIFLY MET'MAP TEAM :

Programmation & Développement : Alexandra Zaïnal
Conception & Développement : Baudouin d'Aumeries
Co-Programmation & Développement : Marc-Olivier Méhu
Soutien technique & logistique : Manuel Goepfert

Contact : metmap@orbifly.com




SOURCES & CREDITS :

   NOAA